sensor_id;sensor_type;location;lat;lon;timestamp;P1;durP1;ratioP1;P2;durP2;ratioP2
19251;SDS011;9760;50.944;5.304;2023-11-21T00:01:52;70.30;;;20.97;;
19251;SDS011;9760;50.944;5.304;2023-11-21T00:04:17;66.83;;;19.70;;
19251;SDS011;9760;50.944;5.304;2023-11-21T00:06:43;69.70;;;20.43;;
19251;SDS011;9760;50.944;5.304;2023-11-21T00:09:11;70.17;;;20.07;;
19251;SDS011;9760;50.944;5.304;2023-11-21T00:11:38;71.27;;;20.50;;
19251;SDS011;9760;50.944;5.304;2023-11-21T00:14:04;72.60;;;20.07;;
19251;SDS011;9760;50.944;5.304;2023-11-21T00:16:29;65.97;;;20.10;;
19251;SDS011;9760;50.944;5.304;2023-11-21T00:18:55;66.57;;;20.30;;
19251;SDS011;9760;50.944;5.304;2023-11-21T00:21:20;66.03;;;17.97;;
19251;SDS011;9760;50.944;5.304;2023-11-21T00:23:46;75.63;;;19.70;;
19251;SDS011;9760;50.944;5.304;2023-11-21T00:26:12;71.93;;;19.60;;
19251;SDS011;9760;50.944;5.304;2023-11-21T00:28:37;64.87;;;22.03;;
19251;SDS011;9760;50.944;5.304;2023-11-21T00:31:03;68.17;;;19.20;;
19251;SDS011;9760;50.944;5.304;2023-11-21T00:33:29;59.97;;;18.80;;
19251;SDS011;9760;50.944;5.304;2023-11-21T00:35:54;64.20;;;18.83;;
19251;SDS011;9760;50.944;5.304;2023-11-21T00:38:20;58.00;;;18.60;;
19251;SDS011;9760;50.944;5.304;2023-11-21T00:40:46;61.40;;;18.23;;
19251;SDS011;9760;50.944;5.304;2023-11-21T00:43:12;62.00;;;18.80;;
19251;SDS011;9760;50.944;5.304;2023-11-21T00:45:37;55.57;;;18.03;;
19251;SDS011;9760;50.944;5.304;2023-11-21T00:48:05;57.63;;;18.93;;
19251;SDS011;9760;50.944;5.304;2023-11-21T00:50:30;58.47;;;18.57;;
19251;SDS011;9760;50.944;5.304;2023-11-21T00:52:56;60.53;;;19.93;;
19251;SDS011;9760;50.944;5.304;2023-11-21T00:55:22;59.33;;;19.10;;
19251;SDS011;9760;50.944;5.304;2023-11-21T00:57:48;58.83;;;19.10;;
19251;SDS011;9760;50.944;5.304;2023-11-21T01:00:13;57.20;;;18.83;;
19251;SDS011;9760;50.944;5.304;2023-11-21T01:02:43;62.43;;;19.27;;
19251;SDS011;9760;50.944;5.304;2023-11-21T01:05:12;53.80;;;17.73;;
19251;SDS011;9760;50.944;5.304;2023-11-21T01:07:38;62.60;;;18.87;;
19251;SDS011;9760;50.944;5.304;2023-11-21T01:10:04;56.63;;;18.27;;
19251;SDS011;9760;50.944;5.304;2023-11-21T01:12:32;63.40;;;20.33;;
19251;SDS011;9760;50.944;5.304;2023-11-21T01:15:00;54.37;;;18.67;;
19251;SDS011;9760;50.944;5.304;2023-11-21T01:17:26;55.33;;;18.73;;
19251;SDS011;9760;50.944;5.304;2023-11-21T01:19:52;54.63;;;18.67;;
19251;SDS011;9760;50.944;5.304;2023-11-21T01:22:17;57.97;;;18.97;;
19251;SDS011;9760;50.944;5.304;2023-11-21T01:24:47;54.93;;;18.73;;
19251;SDS011;9760;50.944;5.304;2023-11-21T01:27:12;55.03;;;18.90;;
19251;SDS011;9760;50.944;5.304;2023-11-21T01:29:38;60.50;;;18.87;;
19251;SDS011;9760;50.944;5.304;2023-11-21T01:32:04;67.17;;;19.67;;
19251;SDS011;9760;50.944;5.304;2023-11-21T01:34:32;51.73;;;18.97;;
19251;SDS011;9760;50.944;5.304;2023-11-21T01:36:58;53.53;;;18.53;;
19251;SDS011;9760;50.944;5.304;2023-11-21T01:39:24;57.50;;;20.63;;
19251;SDS011;9760;50.944;5.304;2023-11-21T01:41:50;60.73;;;18.70;;
19251;SDS011;9760;50.944;5.304;2023-11-21T01:44:17;60.47;;;20.80;;
19251;SDS011;9760;50.944;5.304;2023-11-21T01:46:44;73.17;;;22.73;;
19251;SDS011;9760;50.944;5.304;2023-11-21T01:49:11;67.33;;;20.57;;
19251;SDS011;9760;50.944;5.304;2023-11-21T01:51:38;64.73;;;20.77;;
19251;SDS011;9760;50.944;5.304;2023-11-21T01:54:06;64.00;;;22.10;;
19251;SDS011;9760;50.944;5.304;2023-11-21T01:56:32;71.10;;;21.77;;
19251;SDS011;9760;50.944;5.304;2023-11-21T01:58:57;72.13;;;21.80;;
19251;SDS011;9760;50.944;5.304;2023-11-21T02:01:23;70.83;;;21.33;;
19251;SDS011;9760;50.944;5.304;2023-11-21T02:03:50;71.23;;;22.40;;
19251;SDS011;9760;50.944;5.304;2023-11-21T02:06:16;75.70;;;23.47;;
19251;SDS011;9760;50.944;5.304;2023-11-21T02:08:43;80.37;;;23.37;;
19251;SDS011;9760;50.944;5.304;2023-11-21T02:11:09;72.00;;;22.17;;
19251;SDS011;9760;50.944;5.304;2023-11-21T02:13:38;70.93;;;23.33;;
19251;SDS011;9760;50.944;5.304;2023-11-21T02:16:08;77.20;;;23.37;;
19251;SDS011;9760;50.944;5.304;2023-11-21T02:18:35;74.83;;;22.33;;
19251;SDS011;9760;50.944;5.304;2023-11-21T02:21:01;73.17;;;22.90;;
19251;SDS011;9760;50.944;5.304;2023-11-21T02:23:29;79.37;;;22.83;;
19251;SDS011;9760;50.944;5.304;2023-11-21T02:25:55;77.30;;;23.77;;
19251;SDS011;9760;50.944;5.304;2023-11-21T02:28:21;78.97;;;23.53;;
19251;SDS011;9760;50.944;5.304;2023-11-21T02:30:51;81.77;;;23.73;;
19251;SDS011;9760;50.944;5.304;2023-11-21T02:33:21;83.20;;;23.00;;
19251;SDS011;9760;50.944;5.304;2023-11-21T02:35:47;72.83;;;22.53;;
19251;SDS011;9760;50.944;5.304;2023-11-21T02:38:12;79.63;;;23.40;;
19251;SDS011;9760;50.944;5.304;2023-11-21T02:40:38;80.57;;;22.80;;
19251;SDS011;9760;50.944;5.304;2023-11-21T02:43:04;84.80;;;24.90;;
19251;SDS011;9760;50.944;5.304;2023-11-21T02:45:31;77.67;;;23.63;;
19251;SDS011;9760;50.944;5.304;2023-11-21T02:47:57;71.10;;;21.67;;
19251;SDS011;9760;50.944;5.304;2023-11-21T02:50:23;74.53;;;24.30;;
19251;SDS011;9760;50.944;5.304;2023-11-21T02:52:49;87.57;;;25.70;;
19251;SDS011;9760;50.944;5.304;2023-11-21T02:55:16;94.87;;;25.30;;
19251;SDS011;9760;50.944;5.304;2023-11-21T02:57:41;81.60;;;24.90;;
19251;SDS011;9760;50.944;5.304;2023-11-21T03:00:07;87.50;;;25.83;;
19251;SDS011;9760;50.944;5.304;2023-11-21T03:02:35;92.43;;;26.33;;
19251;SDS011;9760;50.944;5.304;2023-11-21T03:05:04;104.47;;;28.07;;
19251;SDS011;9760;50.944;5.304;2023-11-21T03:07:31;109.67;;;29.30;;
19251;SDS011;9760;50.944;5.304;2023-11-21T03:09:56;109.93;;;28.40;;
19251;SDS011;9760;50.944;5.304;2023-11-21T03:12:22;104.93;;;28.07;;
19251;SDS011;9760;50.944;5.304;2023-11-21T03:14:48;105.53;;;28.67;;
19251;SDS011;9760;50.944;5.304;2023-11-21T03:17:13;110.90;;;28.73;;
19251;SDS011;9760;50.944;5.304;2023-11-21T03:19:41;98.10;;;26.30;;
19251;SDS011;9760;50.944;5.304;2023-11-21T03:22:07;97.87;;;27.17;;
19251;SDS011;9760;50.944;5.304;2023-11-21T03:24:33;110.03;;;30.27;;
19251;SDS011;9760;50.944;5.304;2023-11-21T03:26:59;111.57;;;28.93;;
19251;SDS011;9760;50.944;5.304;2023-11-21T03:29:25;118.20;;;31.07;;
19251;SDS011;9760;50.944;5.304;2023-11-21T03:31:51;108.00;;;31.27;;
19251;SDS011;9760;50.944;5.304;2023-11-21T03:34:23;117.07;;;29.33;;
19251;SDS011;9760;50.944;5.304;2023-11-21T03:36:53;102.90;;;29.40;;
19251;SDS011;9760;50.944;5.304;2023-11-21T03:39:19;102.37;;;29.20;;
19251;SDS011;9760;50.944;5.304;2023-11-21T03:41:45;105.70;;;28.83;;
19251;SDS011;9760;50.944;5.304;2023-11-21T03:44:11;116.97;;;31.20;;
19251;SDS011;9760;50.944;5.304;2023-11-21T03:46:37;124.70;;;32.10;;
19251;SDS011;9760;50.944;5.304;2023-11-21T03:49:03;115.93;;;30.60;;
19251;SDS011;9760;50.944;5.304;2023-11-21T03:51:29;123.30;;;32.50;;
19251;SDS011;9760;50.944;5.304;2023-11-21T03:53:54;118.17;;;30.40;;
19251;SDS011;9760;50.944;5.304;2023-11-21T03:56:20;107.83;;;30.73;;
19251;SDS011;9760;50.944;5.304;2023-11-21T03:58:47;119.07;;;30.00;;
19251;SDS011;9760;50.944;5.304;2023-11-21T04:01:23;110.60;;;28.67;;
19251;SDS011;9760;50.944;5.304;2023-11-21T04:03:50;121.00;;;29.10;;
19251;SDS011;9760;50.944;5.304;2023-11-21T04:06:16;106.53;;;27.97;;
19251;SDS011;9760;50.944;5.304;2023-11-21T04:08:42;110.63;;;30.27;;
19251;SDS011;9760;50.944;5.304;2023-11-21T04:11:09;129.40;;;30.20;;
19251;SDS011;9760;50.944;5.304;2023-11-21T04:13:37;123.77;;;30.00;;
19251;SDS011;9760;50.944;5.304;2023-11-21T04:16:03;97.30;;;26.27;;
19251;SDS011;9760;50.944;5.304;2023-11-21T04:18:30;129.77;;;28.57;;
19251;SDS011;9760;50.944;5.304;2023-11-21T04:20:55;109.70;;;27.97;;
19251;SDS011;9760;50.944;5.304;2023-11-21T04:23:21;113.40;;;27.23;;
19251;SDS011;9760;50.944;5.304;2023-11-21T04:25:47;131.93;;;27.83;;
19251;SDS011;9760;50.944;5.304;2023-11-21T04:28:12;116.87;;;27.87;;
19251;SDS011;9760;50.944;5.304;2023-11-21T04:30:38;132.60;;;27.93;;
19251;SDS011;9760;50.944;5.304;2023-11-21T04:33:04;94.93;;;25.70;;
19251;SDS011;9760;50.944;5.304;2023-11-21T04:35:30;102.37;;;24.93;;
19251;SDS011;9760;50.944;5.304;2023-11-21T04:37:55;105.03;;;26.43;;
19251;SDS011;9760;50.944;5.304;2023-11-21T04:40:22;113.43;;;25.87;;
19251;SDS011;9760;50.944;5.304;2023-11-21T04:42:48;111.67;;;24.90;;
19251;SDS011;9760;50.944;5.304;2023-11-21T04:45:13;132.30;;;25.83;;
19251;SDS011;9760;50.944;5.304;2023-11-21T04:47:39;109.53;;;23.90;;
19251;SDS011;9760;50.944;5.304;2023-11-21T04:50:05;111.77;;;26.33;;
19251;SDS011;9760;50.944;5.304;2023-11-21T04:52:31;118.70;;;27.07;;
19251;SDS011;9760;50.944;5.304;2023-11-21T04:54:58;129.43;;;25.73;;
19251;SDS011;9760;50.944;5.304;2023-11-21T04:57:26;150.50;;;28.30;;
19251;SDS011;9760;50.944;5.304;2023-11-21T04:59:53;112.90;;;25.50;;
19251;SDS011;9760;50.944;5.304;2023-11-21T05:02:19;120.90;;;26.30;;
19251;SDS011;9760;50.944;5.304;2023-11-21T05:04:46;108.00;;;24.40;;
19251;SDS011;9760;50.944;5.304;2023-11-21T05:07:12;124.37;;;25.23;;
19251;SDS011;9760;50.944;5.304;2023-11-21T05:09:41;109.67;;;26.13;;
19251;SDS011;9760;50.944;5.304;2023-11-21T05:12:09;104.40;;;24.90;;
19251;SDS011;9760;50.944;5.304;2023-11-21T05:14:35;110.40;;;25.10;;
19251;SDS011;9760;50.944;5.304;2023-11-21T05:17:01;93.10;;;24.27;;
19251;SDS011;9760;50.944;5.304;2023-11-21T05:19:27;102.63;;;25.17;;
19251;SDS011;9760;50.944;5.304;2023-11-21T05:21:53;116.53;;;26.63;;
19251;SDS011;9760;50.944;5.304;2023-11-21T05:24:19;100.10;;;24.80;;
19251;SDS011;9760;50.944;5.304;2023-11-21T05:26:44;123.90;;;27.00;;
19251;SDS011;9760;50.944;5.304;2023-11-21T05:29:10;114.10;;;25.90;;
19251;SDS011;9760;50.944;5.304;2023-11-21T05:31:36;121.47;;;27.73;;
19251;SDS011;9760;50.944;5.304;2023-11-21T05:34:03;109.70;;;25.73;;
19251;SDS011;9760;50.944;5.304;2023-11-21T05:36:30;109.90;;;26.87;;
19251;SDS011;9760;50.944;5.304;2023-11-21T05:38:55;119.30;;;27.67;;
19251;SDS011;9760;50.944;5.304;2023-11-21T05:41:21;125.63;;;28.57;;
19251;SDS011;9760;50.944;5.304;2023-11-21T05:43:48;107.77;;;27.80;;
19251;SDS011;9760;50.944;5.304;2023-11-21T05:46:14;111.40;;;27.37;;
19251;SDS011;9760;50.944;5.304;2023-11-21T05:48:39;118.33;;;27.83;;
19251;SDS011;9760;50.944;5.304;2023-11-21T05:51:05;130.30;;;28.23;;
19251;SDS011;9760;50.944;5.304;2023-11-21T05:53:32;142.87;;;28.30;;
19251;SDS011;9760;50.944;5.304;2023-11-21T05:55:57;122.53;;;26.60;;
19251;SDS011;9760;50.944;5.304;2023-11-21T05:58:23;138.97;;;28.10;;
19251;SDS011;9760;50.944;5.304;2023-11-21T06:00:49;111.23;;;26.70;;
19251;SDS011;9760;50.944;5.304;2023-11-21T06:03:14;167.50;;;29.77;;
19251;SDS011;9760;50.944;5.304;2023-11-21T06:05:40;133.23;;;29.73;;
19251;SDS011;9760;50.944;5.304;2023-11-21T06:08:05;134.10;;;27.27;;
19251;SDS011;9760;50.944;5.304;2023-11-21T06:10:32;125.40;;;27.23;;
19251;SDS011;9760;50.944;5.304;2023-11-21T06:12:58;126.43;;;29.13;;
19251;SDS011;9760;50.944;5.304;2023-11-21T06:15:23;121.40;;;27.57;;
19251;SDS011;9760;50.944;5.304;2023-11-21T06:17:49;125.83;;;29.70;;
19251;SDS011;9760;50.944;5.304;2023-11-21T06:20:17;136.17;;;31.60;;
19251;SDS011;9760;50.944;5.304;2023-11-21T06:22:44;124.20;;;29.57;;
19251;SDS011;9760;50.944;5.304;2023-11-21T06:25:11;134.77;;;29.77;;
19251;SDS011;9760;50.944;5.304;2023-11-21T06:27:47;129.77;;;28.70;;
19251;SDS011;9760;50.944;5.304;2023-11-21T06:30:14;148.43;;;31.43;;
19251;SDS011;9760;50.944;5.304;2023-11-21T06:32:40;119.80;;;29.87;;
19251;SDS011;9760;50.944;5.304;2023-11-21T06:35:07;145.70;;;32.23;;
19251;SDS011;9760;50.944;5.304;2023-11-21T06:37:36;130.50;;;30.37;;
19251;SDS011;9760;50.944;5.304;2023-11-21T06:40:02;155.33;;;30.10;;
19251;SDS011;9760;50.944;5.304;2023-11-21T06:42:32;147.70;;;30.90;;
19251;SDS011;9760;50.944;5.304;2023-11-21T06:44:58;129.60;;;30.53;;
19251;SDS011;9760;50.944;5.304;2023-11-21T06:47:24;132.70;;;29.97;;
19251;SDS011;9760;50.944;5.304;2023-11-21T06:49:50;127.80;;;29.00;;
19251;SDS011;9760;50.944;5.304;2023-11-21T06:52:17;119.87;;;29.13;;
19251;SDS011;9760;50.944;5.304;2023-11-21T06:54:43;128.70;;;28.97;;
19251;SDS011;9760;50.944;5.304;2023-11-21T06:57:09;113.20;;;26.70;;
19251;SDS011;9760;50.944;5.304;2023-11-21T06:59:35;105.87;;;27.20;;
19251;SDS011;9760;50.944;5.304;2023-11-21T07:02:00;118.73;;;27.23;;
19251;SDS011;9760;50.944;5.304;2023-11-21T07:04:26;127.70;;;28.23;;
19251;SDS011;9760;50.944;5.304;2023-11-21T07:06:55;135.50;;;29.30;;
19251;SDS011;9760;50.944;5.304;2023-11-21T07:09:21;124.17;;;28.57;;
19251;SDS011;9760;50.944;5.304;2023-11-21T07:11:47;124.10;;;29.00;;
19251;SDS011;9760;50.944;5.304;2023-11-21T07:14:14;117.10;;;28.80;;
19251;SDS011;9760;50.944;5.304;2023-11-21T07:16:43;122.47;;;30.20;;
19251;SDS011;9760;50.944;5.304;2023-11-21T07:19:08;126.00;;;30.70;;
19251;SDS011;9760;50.944;5.304;2023-11-21T07:21:34;129.20;;;30.77;;
19251;SDS011;9760;50.944;5.304;2023-11-21T07:24:01;116.93;;;28.33;;
19251;SDS011;9760;50.944;5.304;2023-11-21T07:26:27;135.37;;;32.30;;
19251;SDS011;9760;50.944;5.304;2023-11-21T07:28:53;128.27;;;29.17;;
19251;SDS011;9760;50.944;5.304;2023-11-21T07:31:19;123.43;;;31.37;;
19251;SDS011;9760;50.944;5.304;2023-11-21T07:33:46;130.23;;;31.03;;
19251;SDS011;9760;50.944;5.304;2023-11-21T07:36:13;128.80;;;30.20;;
19251;SDS011;9760;50.944;5.304;2023-11-21T07:38:39;132.03;;;33.57;;
19251;SDS011;9760;50.944;5.304;2023-11-21T07:41:05;129.03;;;32.70;;
19251;SDS011;9760;50.944;5.304;2023-11-21T07:43:32;127.60;;;30.63;;
19251;SDS011;9760;50.944;5.304;2023-11-21T07:46:02;107.50;;;29.10;;
19251;SDS011;9760;50.944;5.304;2023-11-21T07:48:31;90.43;;;25.67;;
19251;SDS011;9760;50.944;5.304;2023-11-21T07:50:57;105.97;;;27.10;;
19251;SDS011;9760;50.944;5.304;2023-11-21T07:53:26;105.63;;;27.73;;
19251;SDS011;9760;50.944;5.304;2023-11-21T07:55:55;108.40;;;29.10;;
19251;SDS011;9760;50.944;5.304;2023-11-21T07:58:21;96.77;;;25.67;;
19251;SDS011;9760;50.944;5.304;2023-11-21T08:00:46;98.40;;;26.60;;
19251;SDS011;9760;50.944;5.304;2023-11-21T08:03:15;98.63;;;26.93;;
19251;SDS011;9760;50.944;5.304;2023-11-21T08:05:41;91.03;;;26.00;;
19251;SDS011;9760;50.944;5.304;2023-11-21T08:08:07;92.83;;;26.63;;
19251;SDS011;9760;50.944;5.304;2023-11-21T08:10:33;94.90;;;26.60;;
19251;SDS011;9760;50.944;5.304;2023-11-21T08:13:00;86.53;;;25.20;;
19251;SDS011;9760;50.944;5.304;2023-11-21T08:15:26;91.87;;;26.60;;
19251;SDS011;9760;50.944;5.304;2023-11-21T08:17:52;89.20;;;26.27;;
19251;SDS011;9760;50.944;5.304;2023-11-21T08:20:17;92.80;;;27.20;;
19251;SDS011;9760;50.944;5.304;2023-11-21T08:22:43;86.33;;;24.83;;
19251;SDS011;9760;50.944;5.304;2023-11-21T08:25:10;85.73;;;26.17;;
19251;SDS011;9760;50.944;5.304;2023-11-21T08:27:36;98.93;;;26.00;;
19251;SDS011;9760;50.944;5.304;2023-11-21T08:30:04;89.83;;;25.97;;
19251;SDS011;9760;50.944;5.304;2023-11-21T08:32:32;87.30;;;25.27;;
19251;SDS011;9760;50.944;5.304;2023-11-21T08:34:58;94.73;;;25.43;;
19251;SDS011;9760;50.944;5.304;2023-11-21T08:37:24;89.20;;;25.23;;
19251;SDS011;9760;50.944;5.304;2023-11-21T08:39:52;87.83;;;25.43;;
19251;SDS011;9760;50.944;5.304;2023-11-21T08:42:18;71.90;;;23.93;;
19251;SDS011;9760;50.944;5.304;2023-11-21T08:44:44;82.80;;;24.27;;
19251;SDS011;9760;50.944;5.304;2023-11-21T08:47:10;79.27;;;25.10;;
19251;SDS011;9760;50.944;5.304;2023-11-21T08:49:36;79.33;;;23.10;;
19251;SDS011;9760;50.944;5.304;2023-11-21T08:52:03;82.17;;;25.07;;
19251;SDS011;9760;50.944;5.304;2023-11-21T08:54:30;76.70;;;23.17;;
19251;SDS011;9760;50.944;5.304;2023-11-21T08:56:56;63.70;;;22.60;;
19251;SDS011;9760;50.944;5.304;2023-11-21T08:59:23;73.93;;;24.47;;
19251;SDS011;9760;50.944;5.304;2023-11-21T09:01:52;68.07;;;21.37;;
19251;SDS011;9760;50.944;5.304;2023-11-21T09:04:17;70.90;;;22.40;;
19251;SDS011;9760;50.944;5.304;2023-11-21T09:06:43;65.73;;;22.17;;
19251;SDS011;9760;50.944;5.304;2023-11-21T09:09:08;79.67;;;22.97;;
19251;SDS011;9760;50.944;5.304;2023-11-21T09:11:35;73.00;;;23.20;;
19251;SDS011;9760;50.944;5.304;2023-11-21T09:14:02;68.00;;;21.47;;
19251;SDS011;9760;50.944;5.304;2023-11-21T09:16:31;68.87;;;21.27;;
19251;SDS011;9760;50.944;5.304;2023-11-21T09:18:57;73.37;;;21.70;;
19251;SDS011;9760;50.944;5.304;2023-11-21T09:21:24;59.77;;;19.63;;
19251;SDS011;9760;50.944;5.304;2023-11-21T09:23:50;51.73;;;18.50;;
19251;SDS011;9760;50.944;5.304;2023-11-21T09:26:16;60.37;;;20.67;;
19251;SDS011;9760;50.944;5.304;2023-11-21T09:28:45;50.70;;;19.20;;
19251;SDS011;9760;50.944;5.304;2023-11-21T09:31:13;48.90;;;18.37;;
19251;SDS011;9760;50.944;5.304;2023-11-21T09:33:40;47.13;;;17.43;;
19251;SDS011;9760;50.944;5.304;2023-11-21T09:36:10;45.07;;;18.03;;
19251;SDS011;9760;50.944;5.304;2023-11-21T09:38:38;51.93;;;18.00;;
19251;SDS011;9760;50.944;5.304;2023-11-21T09:41:04;46.93;;;18.07;;
19251;SDS011;9760;50.944;5.304;2023-11-21T09:43:34;46.07;;;17.30;;
19251;SDS011;9760;50.944;5.304;2023-11-21T09:46:01;48.47;;;17.70;;
19251;SDS011;9760;50.944;5.304;2023-11-21T09:48:29;48.37;;;18.00;;
19251;SDS011;9760;50.944;5.304;2023-11-21T09:50:57;50.57;;;18.90;;
19251;SDS011;9760;50.944;5.304;2023-11-21T09:53:24;55.93;;;18.63;;
19251;SDS011;9760;50.944;5.304;2023-11-21T09:55:55;51.77;;;18.30;;
19251;SDS011;9760;50.944;5.304;2023-11-21T09:58:21;60.37;;;19.73;;
19251;SDS011;9760;50.944;5.304;2023-11-21T10:00:48;54.37;;;18.90;;
19251;SDS011;9760;50.944;5.304;2023-11-21T10:03:17;53.47;;;19.10;;
19251;SDS011;9760;50.944;5.304;2023-11-21T10:05:43;54.80;;;20.50;;
19251;SDS011;9760;50.944;5.304;2023-11-21T10:08:11;58.63;;;20.90;;
19251;SDS011;9760;50.944;5.304;2023-11-21T10:10:37;56.27;;;20.20;;
19251;SDS011;9760;50.944;5.304;2023-11-21T10:13:10;59.30;;;19.47;;
19251;SDS011;9760;50.944;5.304;2023-11-21T10:15:37;54.57;;;20.30;;
19251;SDS011;9760;50.944;5.304;2023-11-21T10:18:03;54.80;;;19.20;;
19251;SDS011;9760;50.944;5.304;2023-11-21T10:20:32;58.30;;;20.77;;
19251;SDS011;9760;50.944;5.304;2023-11-21T10:23:03;60.97;;;19.93;;
19251;SDS011;9760;50.944;5.304;2023-11-21T10:25:29;61.23;;;20.17;;
19251;SDS011;9760;50.944;5.304;2023-11-21T10:27:59;61.60;;;20.20;;
19251;SDS011;9760;50.944;5.304;2023-11-21T10:30:31;65.73;;;20.60;;
19251;SDS011;9760;50.944;5.304;2023-11-21T10:33:02;57.77;;;20.17;;
19251;SDS011;9760;50.944;5.304;2023-11-21T10:38:07;62.47;;;21.10;;
19251;SDS011;9760;50.944;5.304;2023-11-21T10:40:37;57.93;;;20.07;;
19251;SDS011;9760;50.944;5.304;2023-11-21T10:43:07;59.00;;;19.70;;
19251;SDS011;9760;50.944;5.304;2023-11-21T10:45:34;55.30;;;18.57;;
19251;SDS011;9760;50.944;5.304;2023-11-21T10:48:04;56.37;;;20.57;;
19251;SDS011;9760;50.944;5.304;2023-11-21T10:50:34;57.00;;;18.37;;
19251;SDS011;9760;50.944;5.304;2023-11-21T10:53:04;62.57;;;19.63;;
19251;SDS011;9760;50.944;5.304;2023-11-21T10:55:30;54.30;;;18.93;;
19251;SDS011;9760;50.944;5.304;2023-11-21T10:57:58;53.50;;;19.20;;
19251;SDS011;9760;50.944;5.304;2023-11-21T11:00:27;57.10;;;19.47;;
19251;SDS011;9760;50.944;5.304;2023-11-21T11:02:54;55.43;;;18.37;;
19251;SDS011;9760;50.944;5.304;2023-11-21T11:05:21;57.57;;;20.00;;
19251;SDS011;9760;50.944;5.304;2023-11-21T11:07:51;58.00;;;20.47;;
19251;SDS011;9760;50.944;5.304;2023-11-21T11:10:27;59.50;;;21.17;;
19251;SDS011;9760;50.944;5.304;2023-11-21T11:12:57;58.87;;;18.77;;
19251;SDS011;9760;50.944;5.304;2023-11-21T11:15:26;55.37;;;19.33;;
19251;SDS011;9760;50.944;5.304;2023-11-21T11:17:53;50.90;;;19.70;;
19251;SDS011;9760;50.944;5.304;2023-11-21T11:20:22;51.57;;;19.23;;
19251;SDS011;9760;50.944;5.304;2023-11-21T11:23:37;52.80;;;19.77;;
19251;SDS011;9760;50.944;5.304;2023-11-21T11:37:03;50.90;;;18.60;;
19251;SDS011;9760;50.944;5.304;2023-11-21T11:39:37;67.83;;;22.87;;
19251;SDS011;9760;50.944;5.304;2023-11-21T11:42:05;59.57;;;20.97;;
19251;SDS011;9760;50.944;5.304;2023-11-21T11:49:56;66.03;;;21.80;;
19251;SDS011;9760;50.944;5.304;2023-11-21T11:52:35;66.50;;;21.37;;
19251;SDS011;9760;50.944;5.304;2023-11-21T11:55:02;67.00;;;22.20;;
19251;SDS011;9760;50.944;5.304;2023-11-21T11:57:32;71.27;;;22.20;;
19251;SDS011;9760;50.944;5.304;2023-11-21T12:02:51;63.17;;;21.20;;
19251;SDS011;9760;50.944;5.304;2023-11-21T12:05:21;68.50;;;21.80;;
19251;SDS011;9760;50.944;5.304;2023-11-21T12:07:49;69.37;;;21.77;;
19251;SDS011;9760;50.944;5.304;2023-11-21T12:10:19;62.03;;;21.60;;
19251;SDS011;9760;50.944;5.304;2023-11-21T12:12:51;67.30;;;21.57;;
19251;SDS011;9760;50.944;5.304;2023-11-21T12:15:20;68.07;;;22.23;;
19251;SDS011;9760;50.944;5.304;2023-11-21T12:17:47;72.83;;;21.63;;
19251;SDS011;9760;50.944;5.304;2023-11-21T12:20:14;71.77;;;21.70;;
19251;SDS011;9760;50.944;5.304;2023-11-21T12:22:43;60.03;;;20.30;;
19251;SDS011;9760;50.944;5.304;2023-11-21T12:25:12;58.53;;;20.17;;
19251;SDS011;9760;50.944;5.304;2023-11-21T12:27:41;57.27;;;20.20;;
19251;SDS011;9760;50.944;5.304;2023-11-21T12:30:08;50.87;;;18.87;;
19251;SDS011;9760;50.944;5.304;2023-11-21T12:32:38;53.33;;;18.97;;
19251;SDS011;9760;50.944;5.304;2023-11-21T12:35:06;54.87;;;19.37;;
19251;SDS011;9760;50.944;5.304;2023-11-21T12:37:33;54.13;;;19.93;;
19251;SDS011;9760;50.944;5.304;2023-11-21T12:39:59;51.17;;;18.73;;
19251;SDS011;9760;50.944;5.304;2023-11-21T12:42:24;52.40;;;19.53;;
19251;SDS011;9760;50.944;5.304;2023-11-21T12:45:07;54.40;;;19.53;;
19251;SDS011;9760;50.944;5.304;2023-11-21T12:47:34;51.43;;;19.37;;
19251;SDS011;9760;50.944;5.304;2023-11-21T12:50:02;55.47;;;21.07;;
19251;SDS011;9760;50.944;5.304;2023-11-21T12:52:28;53.23;;;20.23;;
19251;SDS011;9760;50.944;5.304;2023-11-21T12:54:53;50.97;;;20.27;;
19251;SDS011;9760;50.944;5.304;2023-11-21T12:57:21;53.93;;;20.20;;
19251;SDS011;9760;50.944;5.304;2023-11-21T12:59:56;61.03;;;20.53;;
19251;SDS011;9760;50.944;5.304;2023-11-21T13:02:22;52.27;;;21.03;;
19251;SDS011;9760;50.944;5.304;2023-11-21T13:04:51;58.23;;;20.53;;
19251;SDS011;9760;50.944;5.304;2023-11-21T13:07:19;56.23;;;21.03;;
19251;SDS011;9760;50.944;5.304;2023-11-21T13:09:45;54.60;;;20.63;;
19251;SDS011;9760;50.944;5.304;2023-11-21T13:12:11;56.07;;;21.50;;
19251;SDS011;9760;50.944;5.304;2023-11-21T13:14:39;53.70;;;22.03;;
19251;SDS011;9760;50.944;5.304;2023-11-21T13:17:05;55.90;;;20.53;;
19251;SDS011;9760;50.944;5.304;2023-11-21T13:19:31;58.10;;;22.23;;
19251;SDS011;9760;50.944;5.304;2023-11-21T13:21:56;55.77;;;22.37;;
19251;SDS011;9760;50.944;5.304;2023-11-21T13:24:23;58.67;;;21.33;;
19251;SDS011;9760;50.944;5.304;2023-11-21T13:26:50;57.77;;;21.43;;
19251;SDS011;9760;50.944;5.304;2023-11-21T13:29:16;56.53;;;22.17;;
19251;SDS011;9760;50.944;5.304;2023-11-21T13:31:42;55.83;;;21.77;;
19251;SDS011;9760;50.944;5.304;2023-11-21T13:34:08;59.27;;;22.07;;
19251;SDS011;9760;50.944;5.304;2023-11-21T13:36:33;61.73;;;22.40;;
19251;SDS011;9760;50.944;5.304;2023-11-21T13:39:00;56.60;;;22.23;;
19251;SDS011;9760;50.944;5.304;2023-11-21T13:41:32;51.10;;;20.70;;
19251;SDS011;9760;50.944;5.304;2023-11-21T13:43:59;50.47;;;20.37;;
19251;SDS011;9760;50.944;5.304;2023-11-21T13:46:41;51.20;;;19.83;;
19251;SDS011;9760;50.944;5.304;2023-11-21T13:49:07;52.10;;;20.77;;
19251;SDS011;9760;50.944;5.304;2023-11-21T13:51:35;48.87;;;19.70;;
19251;SDS011;9760;50.944;5.304;2023-11-21T13:54:06;49.33;;;19.47;;
19251;SDS011;9760;50.944;5.304;2023-11-21T13:56:35;48.57;;;20.43;;
19251;SDS011;9760;50.944;5.304;2023-11-21T13:59:02;45.23;;;18.27;;
19251;SDS011;9760;50.944;5.304;2023-11-21T14:01:39;49.93;;;20.53;;
19251;SDS011;9760;50.944;5.304;2023-11-21T14:04:30;48.67;;;20.17;;
19251;SDS011;9760;50.944;5.304;2023-11-21T14:06:56;47.60;;;20.33;;
19251;SDS011;9760;50.944;5.304;2023-11-21T14:09:22;47.73;;;19.93;;
19251;SDS011;9760;50.944;5.304;2023-11-21T14:11:51;45.67;;;18.67;;
19251;SDS011;9760;50.944;5.304;2023-11-21T14:14:18;46.20;;;18.17;;
19251;SDS011;9760;50.944;5.304;2023-11-21T14:16:45;43.07;;;19.00;;
19251;SDS011;9760;50.944;5.304;2023-11-21T14:19:11;45.20;;;18.63;;
19251;SDS011;9760;50.944;5.304;2023-11-21T14:21:43;48.47;;;18.80;;
19251;SDS011;9760;50.944;5.304;2023-11-21T14:24:09;47.57;;;18.57;;
19251;SDS011;9760;50.944;5.304;2023-11-21T14:26:37;42.23;;;17.53;;
19251;SDS011;9760;50.944;5.304;2023-11-21T14:29:04;44.93;;;18.50;;
19251;SDS011;9760;50.944;5.304;2023-11-21T14:31:30;42.83;;;17.70;;
19251;SDS011;9760;50.944;5.304;2023-11-21T14:33:57;43.67;;;17.27;;
19251;SDS011;9760;50.944;5.304;2023-11-21T14:36:22;38.77;;;16.93;;
19251;SDS011;9760;50.944;5.304;2023-11-21T14:38:49;41.80;;;16.47;;
19251;SDS011;9760;50.944;5.304;2023-11-21T14:41:14;36.47;;;15.37;;
19251;SDS011;9760;50.944;5.304;2023-11-21T14:43:40;38.87;;;16.30;;
19251;SDS011;9760;50.944;5.304;2023-11-21T14:46:07;34.87;;;15.33;;
19251;SDS011;9760;50.944;5.304;2023-11-21T14:48:35;36.50;;;15.20;;
19251;SDS011;9760;50.944;5.304;2023-11-21T14:51:08;37.37;;;14.27;;
19251;SDS011;9760;50.944;5.304;2023-11-21T14:53:56;29.97;;;14.60;;